createdAt,value
2017-08-26T00:00:39.855Z,70.30
2017-08-26T00:03:07.446Z,71.00
2017-08-26T00:05:35.070Z,70.90
2017-08-26T00:08:02.675Z,70.80
2017-08-26T00:10:30.309Z,70.60
2017-08-26T00:12:57.865Z,69.70
2017-08-26T00:15:25.442Z,71.10
2017-08-26T00:17:53.047Z,70.40
2017-08-26T00:20:20.681Z,70.60
2017-08-26T00:22:48.285Z,70.60
2017-08-26T00:25:15.909Z,70.20
2017-08-26T00:27:43.502Z,69.50
2017-08-26T00:30:11.075Z,69.60
2017-08-26T00:32:38.707Z,70.20
2017-08-26T00:35:06.278Z,69.10
2017-08-26T00:37:33.850Z,69.90
2017-08-26T00:40:01.452Z,69.60
2017-08-26T00:42:29.059Z,69.50
2017-08-26T00:44:56.637Z,68.80
2017-08-26T00:47:24.261Z,67.90
2017-08-26T00:49:51.873Z,68.20
2017-08-26T00:52:19.473Z,68.00
2017-08-26T00:54:47.075Z,67.80
2017-08-26T00:57:14.717Z,67.80
2017-08-26T00:59:42.286Z,68.00
2017-08-26T01:02:09.873Z,68.10
2017-08-26T01:04:37.457Z,67.70
2017-08-26T01:07:10.803Z,67.90
2017-08-26T01:09:38.364Z,68.70
2017-08-26T01:12:06.709Z,68.50
2017-08-26T01:14:34.332Z,68.50
2017-08-26T01:17:01.918Z,68.60
2017-08-26T01:19:29.491Z,68.90
2017-08-26T01:21:57.088Z,68.70
2017-08-26T01:24:24.676Z,68.90
2017-08-26T01:26:52.240Z,69.10
2017-08-26T01:29:20.796Z,69.20
2017-08-26T01:31:48.453Z,69.30
2017-08-26T01:34:16.084Z,69.30
2017-08-26T01:36:43.862Z,69.70
2017-08-26T01:39:11.453Z,71.10
2017-08-26T01:41:39.022Z,72.20
2017-08-26T01:44:07.406Z,72.40
2017-08-26T01:46:34.999Z,72.40
2017-08-26T01:49:02.592Z,73.20
2017-08-26T01:51:30.202Z,72.50
2017-08-26T01:53:58.524Z,73.30
2017-08-26T01:56:26.108Z,73.40
2017-08-26T01:58:53.729Z,73.40
2017-08-26T02:01:21.319Z,73.50
2017-08-26T02:03:48.878Z,72.00
2017-08-26T02:06:16.494Z,72.90
2017-08-26T02:08:44.067Z,73.30
2017-08-26T02:11:11.639Z,72.70
2017-08-26T02:13:39.225Z,73.00
2017-08-26T02:16:06.811Z,73.40
2017-08-26T02:18:34.400Z,73.40
2017-08-26T02:21:01.992Z,73.30
2017-08-26T02:23:29.578Z,73.20
2017-08-26T02:25:57.169Z,73.50
2017-08-26T02:28:25.544Z,74.20
2017-08-26T02:30:53.101Z,74.20
2017-08-26T02:33:20.675Z,74.10
2017-08-26T02:35:48.295Z,74.40
2017-08-26T02:38:15.865Z,74.70
2017-08-26T02:40:43.593Z,74.70
2017-08-26T02:43:11.244Z,74.70
2017-08-26T02:45:38.816Z,74.70
2017-08-26T02:48:06.399Z,74.90
2017-08-26T02:50:34.004Z,75.00
2017-08-26T02:53:01.601Z,74.90
2017-08-26T02:55:29.174Z,75.00
2017-08-26T02:57:56.766Z,75.00
2017-08-26T03:00:24.337Z,74.40
2017-08-26T03:02:51.902Z,74.20
2017-08-26T03:05:19.522Z,73.60
2017-08-26T03:07:47.303Z,73.60
2017-08-26T03:10:14.982Z,73.60
2017-08-26T03:12:42.580Z,73.90
2017-08-26T03:15:10.166Z,74.50
2017-08-26T03:17:37.720Z,74.40
2017-08-26T03:20:05.332Z,74.70
2017-08-26T03:22:32.920Z,76.60
2017-08-26T03:25:00.510Z,76.10
2017-08-26T03:27:28.996Z,76.00
2017-08-26T03:29:56.585Z,76.00
2017-08-26T03:32:24.156Z,76.70
2017-08-26T03:34:51.757Z,76.40
2017-08-26T03:37:19.353Z,76.30
2017-08-26T03:39:46.920Z,76.90
2017-08-26T03:42:15.080Z,77.40
2017-08-26T03:44:42.659Z,77.90
2017-08-26T03:47:10.245Z,78.10
2017-08-26T03:49:37.847Z,78.10
2017-08-26T03:52:05.431Z,78.10
2017-08-26T03:54:32.993Z,77.70
2017-08-26T03:57:00.605Z,77.50
2017-08-26T03:59:28.164Z,77.40
2017-08-26T04:01:55.734Z,77.60
2017-08-26T04:04:23.328Z,77.70
2017-08-26T04:06:50.992Z,78.10
2017-08-26T04:09:19.379Z,78.20
2017-08-26T04:11:46.985Z,78.10
2017-08-26T04:14:14.568Z,77.90
2017-08-26T04:16:42.136Z,77.70
2017-08-26T04:19:09.757Z,78.00
2017-08-26T04:21:37.360Z,78.10
2017-08-26T04:24:04.946Z,78.50
2017-08-26T04:26:32.623Z,78.60
2017-08-26T04:29:00.258Z,78.80
2017-08-26T04:31:27.824Z,79.30
2017-08-26T04:33:55.547Z,79.30
2017-08-26T04:36:23.117Z,78.90
2017-08-26T04:38:50.780Z,78.70
2017-08-26T04:41:18.369Z,78.80
2017-08-26T04:43:45.982Z,78.60
2017-08-26T04:46:13.580Z,78.50
2017-08-26T04:48:41.186Z,78.60
2017-08-26T04:51:09.534Z,79.30
2017-08-26T04:53:37.107Z,80.10
2017-08-26T04:56:04.724Z,79.50
2017-08-26T04:58:32.322Z,80.00
2017-08-26T05:00:59.898Z,80.00
2017-08-26T05:03:27.507Z,80.10
2017-08-26T05:05:55.087Z,80.40
2017-08-26T05:08:22.811Z,80.10
2017-08-26T05:10:50.423Z,79.80
2017-08-26T05:13:18.102Z,79.90
2017-08-26T05:15:45.779Z,79.30
2017-08-26T05:18:13.526Z,78.70
2017-08-26T05:20:41.117Z,78.80
2017-08-26T05:23:08.699Z,79.10
2017-08-26T05:25:36.280Z,79.20
2017-08-26T05:28:03.854Z,79.00
2017-08-26T05:30:31.429Z,79.10
2017-08-26T05:32:59.021Z,80.30
2017-08-26T05:35:26.600Z,79.50
2017-08-26T05:37:54.183Z,79.70
2017-08-26T05:40:21.777Z,79.90
2017-08-26T05:42:49.358Z,79.10
2017-08-26T05:45:16.929Z,78.50
2017-08-26T05:47:44.582Z,78.20
2017-08-26T05:50:12.153Z,77.90
2017-08-26T05:52:39.734Z,77.60
2017-08-26T05:55:07.357Z,77.90
2017-08-26T05:57:34.929Z,77.10
2017-08-26T06:00:02.511Z,76.70
2017-08-26T06:02:30.137Z,76.20
2017-08-26T06:04:57.769Z,75.90
2017-08-26T06:07:25.349Z,75.70
2017-08-26T06:09:52.967Z,75.90
2017-08-26T06:12:20.633Z,75.60
2017-08-26T06:14:48.313Z,75.70
2017-08-26T06:17:18.958Z,75.60
2017-08-26T06:19:50.040Z,75.30
2017-08-26T06:22:17.670Z,75.00
2017-08-26T06:24:45.544Z,74.50
2017-08-26T06:27:13.140Z,74.40
2017-08-26T06:29:40.695Z,74.20
2017-08-26T06:32:08.304Z,74.10
2017-08-26T06:34:35.887Z,74.20
2017-08-26T06:37:03.455Z,75.60
2017-08-26T06:39:31.040Z,74.50
2017-08-26T06:41:58.631Z,73.40
2017-08-26T06:44:26.989Z,73.90
2017-08-26T06:46:54.584Z,73.90
2017-08-26T06:49:22.186Z,73.70
2017-08-26T06:51:49.783Z,73.30
2017-08-26T06:54:17.384Z,73.90
2017-08-26T06:56:45.275Z,73.30
2017-08-26T06:59:12.865Z,74.10
2017-08-26T07:01:40.452Z,73.10
2017-08-26T07:04:08.097Z,72.70
2017-08-26T07:06:35.704Z,72.60
2017-08-26T07:09:03.282Z,72.70
2017-08-26T07:11:30.841Z,72.30
2017-08-26T07:13:58.474Z,72.20
2017-08-26T07:16:26.041Z,72.30
2017-08-26T07:18:53.657Z,72.40
2017-08-26T07:21:21.212Z,71.50
2017-08-26T07:23:48.897Z,71.50
2017-08-26T07:26:16.496Z,72.10
2017-08-26T07:28:44.077Z,72.10
2017-08-26T07:31:11.650Z,72.30
2017-08-26T07:33:39.249Z,71.80
2017-08-26T07:36:06.823Z,71.90
2017-08-26T07:38:34.391Z,71.70
2017-08-26T07:41:01.978Z,71.60
2017-08-26T07:43:29.614Z,71.60
2017-08-26T07:45:57.177Z,71.60
2017-08-26T07:48:24.771Z,71.00
2017-08-26T07:50:53.262Z,71.00
2017-08-26T07:53:20.846Z,71.00
2017-08-26T07:55:48.545Z,70.30
2017-08-26T07:58:16.128Z,70.30
2017-08-26T08:00:43.786Z,70.70
2017-08-26T08:03:11.386Z,70.80
2017-08-26T08:05:38.962Z,70.80
2017-08-26T08:08:06.566Z,70.80
2017-08-26T08:10:34.166Z,71.00
2017-08-26T08:13:01.738Z,71.00
2017-08-26T08:15:29.330Z,70.90
2017-08-26T08:17:56.926Z,70.20
2017-08-26T08:20:24.504Z,69.50
2017-08-26T08:22:52.127Z,69.80
2017-08-26T08:25:19.728Z,69.20
2017-08-26T08:27:47.306Z,69.80
2017-08-26T08:30:14.945Z,69.70
2017-08-26T08:32:42.555Z,70.60
2017-08-26T08:35:10.135Z,71.20
2017-08-26T08:37:37.725Z,71.70
2017-08-26T08:40:05.316Z,71.70
2017-08-26T08:42:32.894Z,71.30
2017-08-26T08:45:00.485Z,72.00
2017-08-26T08:47:28.159Z,72.20
2017-08-26T08:49:55.738Z,72.60
2017-08-26T08:52:23.342Z,71.70
2017-08-26T08:54:50.961Z,71.80
2017-08-26T08:57:18.647Z,72.50
2017-08-26T08:59:46.295Z,72.20
2017-08-26T09:02:14.111Z,72.30
2017-08-26T09:04:41.684Z,72.40
2017-08-26T09:07:09.272Z,72.40
2017-08-26T09:09:36.981Z,72.00
2017-08-26T09:12:04.619Z,71.20
2017-08-26T09:14:32.202Z,71.60
2017-08-26T09:16:59.825Z,71.20
2017-08-26T09:19:27.451Z,71.60
2017-08-26T09:21:55.223Z,72.10
2017-08-26T09:24:24.289Z,71.50
2017-08-26T09:26:52.151Z,71.20
2017-08-26T09:29:25.040Z,72.50
2017-08-26T09:31:52.724Z,72.20
2017-08-26T09:34:20.403Z,71.70
2017-08-26T09:36:48.065Z,71.40
2017-08-26T09:39:15.774Z,70.90
2017-08-26T09:41:43.554Z,71.50
2017-08-26T09:44:11.352Z,71.00
2017-08-26T09:46:40.326Z,70.50
2017-08-26T09:49:07.937Z,70.00
2017-08-26T09:51:35.536Z,70.40
2017-08-26T09:54:03.131Z,70.10
2017-08-26T09:56:30.770Z,70.70
2017-08-26T09:58:58.382Z,70.60
2017-08-26T10:01:25.936Z,70.60
2017-08-26T10:03:53.543Z,71.00
2017-08-26T10:06:21.162Z,70.90
2017-08-26T10:08:48.743Z,71.30
2017-08-26T10:11:16.354Z,71.80
2017-08-26T10:13:43.988Z,72.20
2017-08-26T10:16:11.568Z,73.10
2017-08-26T10:18:39.168Z,71.70
2017-08-26T10:21:06.804Z,71.50
2017-08-26T10:23:34.375Z,71.30
2017-08-26T10:26:01.974Z,71.70
2017-08-26T10:28:29.714Z,72.50
2017-08-26T10:30:57.308Z,72.70
2017-08-26T10:33:24.893Z,72.60
2017-08-26T10:35:52.531Z,72.10
2017-08-26T10:38:20.117Z,72.70
2017-08-26T10:40:48.838Z,72.20
2017-08-26T10:43:16.503Z,71.70
2017-08-26T10:45:48.514Z,71.60
2017-08-26T10:48:16.120Z,71.20
2017-08-26T10:50:43.748Z,70.50
2017-08-26T10:53:11.760Z,70.00
2017-08-26T10:55:39.380Z,69.80
2017-08-26T10:58:06.958Z,69.50
2017-08-26T11:00:36.062Z,70.30
2017-08-26T11:05:51.854Z,69.80
2017-08-26T11:08:32.557Z,70.10
2017-08-26T11:11:00.367Z,69.30
2017-08-26T11:13:27.973Z,70.30
2017-08-26T11:16:01.742Z,69.90
2017-08-26T11:18:33.414Z,70.00
2017-08-26T11:54:01.094Z,71.20
2017-08-26T11:56:40.127Z,72.10
2017-08-26T11:59:07.736Z,70.80
2017-08-26T12:01:35.302Z,70.60
2017-08-26T12:04:12.683Z,70.10
2017-08-26T12:06:40.276Z,69.70
2017-08-26T12:09:07.855Z,70.60
2017-08-26T12:11:35.619Z,70.30
2017-08-26T12:14:03.233Z,69.70
2017-08-26T12:16:30.837Z,69.50
2017-08-26T12:18:58.450Z,69.50
2017-08-26T12:21:26.164Z,68.90
2017-08-26T12:23:53.923Z,68.50
2017-08-26T12:26:21.545Z,69.30
2017-08-26T12:28:49.177Z,68.70
2017-08-26T12:31:16.777Z,69.00
2017-08-26T12:33:44.448Z,68.80
2017-08-26T12:36:12.254Z,69.90
2017-08-26T12:38:39.837Z,68.20
2017-08-26T12:41:07.449Z,67.70
2017-08-26T12:43:35.037Z,67.80
2017-08-26T12:46:02.615Z,67.00
2017-08-26T12:48:30.208Z,66.60
2017-08-26T12:50:58.532Z,66.50
2017-08-26T12:53:26.093Z,66.50
2017-08-26T12:55:53.712Z,67.10
2017-08-26T12:58:21.331Z,66.60
2017-08-26T13:00:48.908Z,66.40
2017-08-26T13:03:16.505Z,66.80
2017-08-26T13:05:44.118Z,66.40
2017-08-26T13:08:11.716Z,66.00
2017-08-26T13:10:39.339Z,65.60
2017-08-26T13:13:06.925Z,65.70
2017-08-26T13:15:34.511Z,64.70
2017-08-26T13:18:02.138Z,64.70
2017-08-26T13:20:29.712Z,65.00
2017-08-26T13:22:57.281Z,64.90
2017-08-26T13:25:24.886Z,64.90
2017-08-26T13:27:52.446Z,64.40
2017-08-26T13:30:20.075Z,65.10
2017-08-26T13:32:47.717Z,63.90
2017-08-26T13:35:15.304Z,64.00
2017-08-26T13:37:42.918Z,64.30
2017-08-26T13:40:10.572Z,65.30
2017-08-26T13:42:38.151Z,63.80
2017-08-26T13:45:05.727Z,64.30
2017-08-26T13:47:33.345Z,64.30
2017-08-26T13:50:00.920Z,64.50
2017-08-26T13:52:28.485Z,63.90
2017-08-26T13:54:56.080Z,63.10
2017-08-26T13:57:23.762Z,63.30
2017-08-26T13:59:52.191Z,63.50
2017-08-26T14:02:19.805Z,63.30
2017-08-26T14:04:47.382Z,63.40
2017-08-26T14:07:15.256Z,63.20
2017-08-26T14:09:42.841Z,64.00
2017-08-26T14:12:10.431Z,62.70
2017-08-26T14:14:37.990Z,61.70
2017-08-26T14:17:05.614Z,61.50
2017-08-26T14:19:33.954Z,62.00
2017-08-26T14:22:01.539Z,62.00
2017-08-26T14:24:29.157Z,61.00
2017-08-26T14:26:56.743Z,61.70
2017-08-26T14:29:24.315Z,62.60
2017-08-26T14:31:51.997Z,63.10
2017-08-26T14:34:19.591Z,63.00
2017-08-26T14:36:47.170Z,63.10
2017-08-26T14:39:14.932Z,63.70
2017-08-26T14:41:42.525Z,64.50
2017-08-26T14:44:10.100Z,61.80
2017-08-26T14:46:37.721Z,61.30
2017-08-26T14:49:05.290Z,59.60
2017-08-26T14:51:32.859Z,60.40
2017-08-26T14:54:00.472Z,57.80
2017-08-26T14:56:28.055Z,58.60
2017-08-26T14:58:55.963Z,58.70
2017-08-26T15:01:23.696Z,58.00
2017-08-26T15:03:51.383Z,57.80
2017-08-26T15:06:19.008Z,58.20
2017-08-26T15:08:46.624Z,58.10
2017-08-26T15:11:14.328Z,57.70
2017-08-26T15:13:41.988Z,57.20
2017-08-26T15:16:10.397Z,58.00
2017-08-26T15:18:37.979Z,57.90
2017-08-26T15:21:05.559Z,58.80
2017-08-26T15:23:33.191Z,58.40
2017-08-26T15:26:00.763Z,58.40
2017-08-26T15:28:28.334Z,58.50
2017-08-26T15:30:55.945Z,58.50
2017-08-26T15:33:23.538Z,57.80
2017-08-26T15:35:51.088Z,57.60
2017-08-26T15:38:18.673Z,57.90
2017-08-26T15:40:46.415Z,58.00
2017-08-26T15:43:14.000Z,57.40
2017-08-26T15:45:41.621Z,56.70
2017-08-26T15:48:09.212Z,57.40
2017-08-26T15:50:36.814Z,57.20
2017-08-26T15:53:04.423Z,57.10
2017-08-26T15:55:31.987Z,56.80
2017-08-26T15:57:59.559Z,55.60
2017-08-26T16:00:27.166Z,56.00
2017-08-26T16:02:54.721Z,54.40
2017-08-26T16:05:22.284Z,56.00
2017-08-26T16:07:50.109Z,54.20
2017-08-26T16:10:17.665Z,55.20
2017-08-26T16:12:45.230Z,54.00
2017-08-26T16:15:12.834Z,54.80
2017-08-26T16:17:40.392Z,54.80
2017-08-26T16:20:07.958Z,55.30
2017-08-26T16:22:35.540Z,54.90
2017-08-26T16:25:03.135Z,55.20
2017-08-26T16:27:30.723Z,54.60
2017-08-26T16:29:58.327Z,54.70
2017-08-26T16:32:26.530Z,55.30
2017-08-26T16:34:54.371Z,54.70
2017-08-26T16:37:21.980Z,55.40
2017-08-26T16:39:49.593Z,55.40
2017-08-26T16:42:18.698Z,54.30
2017-08-26T16:44:46.532Z,54.50
2017-08-26T16:47:14.142Z,55.30
2017-08-26T16:49:41.698Z,55.60
2017-08-26T16:52:09.284Z,56.70
2017-08-26T16:54:37.623Z,55.60
2017-08-26T16:57:05.223Z,55.70
2017-08-26T16:59:32.801Z,56.10
2017-08-26T17:02:00.416Z,56.20
2017-08-26T17:04:28.011Z,55.60
2017-08-26T17:06:56.352Z,55.60
2017-08-26T17:09:24.142Z,55.60
2017-08-26T17:11:51.735Z,55.50
2017-08-26T17:14:19.725Z,57.70
2017-08-26T17:16:47.365Z,56.00
2017-08-26T17:19:15.307Z,55.90
2017-08-26T17:21:42.935Z,56.20
2017-08-26T17:24:10.533Z,56.30
2017-08-26T17:26:38.147Z,57.30
2017-08-26T17:29:05.772Z,57.60
2017-08-26T17:31:33.521Z,57.40
2017-08-26T17:34:01.149Z,57.80
2017-08-26T17:36:28.728Z,58.10
2017-08-26T17:38:56.699Z,59.50
2017-08-26T17:41:24.555Z,59.90
2017-08-26T17:43:54.456Z,60.00
2017-08-26T17:46:27.013Z,58.90
2017-08-26T17:48:54.712Z,59.40
2017-08-26T17:51:22.609Z,59.90
2017-08-26T17:53:50.523Z,59.80
2017-08-26T17:56:18.123Z,60.40
2017-08-26T17:58:45.915Z,60.50
2017-08-26T18:01:13.535Z,59.90
2017-08-26T18:03:41.118Z,60.20
2017-08-26T18:06:08.732Z,61.20
2017-08-26T18:08:36.320Z,61.20
2017-08-26T18:11:03.902Z,60.80
2017-08-26T18:13:31.489Z,61.60
2017-08-26T18:15:59.255Z,61.60
2017-08-26T18:18:26.897Z,62.00
2017-08-26T18:20:54.542Z,62.90
2017-08-26T18:23:22.164Z,63.80
2017-08-26T18:25:50.512Z,63.50
2017-08-26T18:28:18.120Z,63.40
2017-08-26T18:30:45.906Z,64.10
2017-08-26T18:33:13.493Z,64.10
2017-08-26T18:35:41.908Z,64.20
2017-08-26T18:40:55.555Z,63.50
2017-08-26T18:43:26.199Z,63.70
2017-08-26T18:45:53.856Z,63.80
2017-08-26T18:48:21.502Z,65.10
2017-08-26T18:50:49.097Z,63.90
2017-08-26T18:53:17.002Z,64.10
2017-08-26T18:55:44.654Z,64.90
2017-08-26T18:58:12.294Z,64.20
2017-08-26T19:00:39.918Z,63.80
2017-08-26T19:03:08.588Z,63.70
2017-08-26T19:05:36.225Z,63.60
2017-08-26T19:08:05.728Z,63.30
2017-08-26T19:10:33.353Z,63.80
2017-08-26T19:13:00.913Z,63.60
2017-08-26T19:15:28.510Z,64.40
2017-08-26T19:17:56.107Z,64.00
2017-08-26T19:20:23.716Z,64.60
2017-08-26T19:22:52.797Z,64.40
2017-08-26T19:25:20.817Z,64.40
2017-08-26T19:28:10.867Z,64.60
2017-08-26T19:30:38.694Z,65.50
2017-08-26T19:33:06.418Z,65.10
2017-08-26T19:35:34.102Z,65.70
2017-08-26T19:38:20.024Z,65.80
2017-08-26T19:40:47.847Z,65.70
2017-08-26T19:43:19.311Z,66.00
2017-08-26T19:45:46.981Z,66.20
2017-08-26T19:48:22.261Z,66.40
2017-08-26T19:50:50.502Z,66.40
2017-08-26T19:53:18.186Z,66.00
2017-08-26T19:55:45.762Z,66.30
2017-08-26T19:58:13.522Z,66.70
2017-08-26T20:00:41.093Z,66.90
2017-08-26T20:03:09.109Z,67.20
2017-08-26T20:05:36.768Z,67.40
2017-08-26T20:08:04.351Z,67.50
2017-08-26T20:10:31.963Z,67.90
2017-08-26T20:13:00.696Z,68.10
